81FD weather

Flying H Heliport
Jupiter, Florida, United States

Public forecast

Using degrees Fahrenheit for public forecast. Weather courtesy of forecast.io.

METAR (pilot weather report)

Closest report is Palm Beach International Airport, 15.1 nm (28.0 km) SSE. Retrieved 2019/06/17 06:53 UTC (1 hour ago):

KPBI 170653Z 12011KT 10SM SCT019 BKN100 BKN200 28/23 A3001 RMK AO2 SLP161 T02780233

TAF (pilot weather forecast)

Closest forecast is Palm Beach International Airport, 15.1 nm (28.0 km) SSE. Retrieved 2019/06/17 06:35 UTC (1 hour ago):

TAF COR KPBI 170532Z 1706/1806 VRB06KT P6SM VCSH SCT025 BKN070 BKN200 TEMPO 1706/1709 VRB15KT 3SM SHRA BKN025 FM170900 15008KT P6SM SHRA SCT025 BKN050 BKN080 FM171400 15011KT P6SM SHRA VCTS SCT025CB BKN050 FM180000 13008KT P6SM VCSH SCT025 BKN070